createdAt,value
2018-06-12T00:00:05.973Z,45.8
2018-06-12T00:02:05.667Z,45.8
2018-06-12T00:04:05.401Z,45.8
2018-06-12T00:06:05.258Z,45.8
2018-06-12T00:08:05.999Z,45.8
2018-06-12T00:10:05.754Z,45.6
2018-06-12T00:12:05.449Z,45.7
2018-06-12T00:14:05.195Z,45.7
2018-06-12T00:16:05.453Z,45.7
2018-06-12T00:18:05.407Z,45.8
2018-06-12T00:20:05.077Z,45.8
2018-06-12T00:22:07.865Z,46
2018-06-12T00:24:10.114Z,46
2018-06-12T00:26:05.787Z,46.1
2018-06-12T00:28:05.495Z,46
2018-06-12T00:30:12.831Z,46.2
2018-06-12T00:32:08.517Z,46.2
2018-06-12T00:34:05.203Z,46.2
2018-06-12T00:36:05.737Z,46.2
2018-06-12T00:38:13.438Z,46.1
2018-06-12T00:40:05.390Z,46.1
2018-06-12T00:42:05.608Z,46.1
2018-06-12T00:44:05.905Z,46
2018-06-12T00:46:05.665Z,45.9
2018-06-12T00:48:10.497Z,45.7
2018-06-12T00:50:15.412Z,45.7
2018-06-12T00:52:07.679Z,45.8
2018-06-12T00:54:08.149Z,45.6
2018-06-12T00:56:05.358Z,45.6
2018-06-12T00:58:08.225Z,45.5
2018-06-12T01:00:05.899Z,45.5
2018-06-12T01:02:05.645Z,45.5
2018-06-12T01:04:10.404Z,45.4
2018-06-12T01:06:05.153Z,45.4
2018-06-12T01:08:05.864Z,45.5
2018-06-12T01:10:09.137Z,45.4
2018-06-12T01:16:42.770Z,45.5
2018-06-12T01:18:14.310Z,45.5
2018-06-12T01:20:07.792Z,45.4
2018-06-12T01:22:05.550Z,45.4
2018-06-12T01:24:08.399Z,45.5
2018-06-12T01:26:12.659Z,45.5
2018-06-12T01:28:05.399Z,45.5
2018-06-12T01:30:07.669Z,39.2
2018-06-12T01:32:05.724Z,45.5
2018-06-12T01:34:10.513Z,45.5
2018-06-12T01:36:05.723Z,45.5
2018-06-12T01:38:05.473Z,45.5
2018-06-12T01:40:05.655Z,45.3
2018-06-12T01:42:05.490Z,45.5
2018-06-12T01:44:07.690Z,45.5
2018-06-12T01:46:05.391Z,45.3
2018-06-12T01:48:08.175Z,45.3
2018-06-12T01:50:06.089Z,45.3
2018-06-12T01:52:05.792Z,45.4
2018-06-12T01:54:05.519Z,45.4
2018-06-12T01:56:05.211Z,45.4
2018-06-12T01:58:05.878Z,45.3
2018-06-12T02:00:05.617Z,45.4
2018-06-12T02:02:13.460Z,45.4
2018-06-12T02:04:07.765Z,45.4
2018-06-12T02:06:05.456Z,45.4
2018-06-12T02:08:07.847Z,45.4
2018-06-12T02:10:05.519Z,45.4
2018-06-12T02:12:05.303Z,45.5
2018-06-12T02:14:05.282Z,45.5
2018-06-12T02:16:06.062Z,45.5
2018-06-12T02:18:05.585Z,45.4
2018-06-12T02:20:05.268Z,45.4
2018-06-12T02:22:05.898Z,45.3
2018-06-12T02:24:05.692Z,45.4
2018-06-12T02:26:05.100Z,45.2
2018-06-12T02:28:05.756Z,45.4
2018-06-12T02:30:07.976Z,45.2
2018-06-12T02:32:05.799Z,45.2
2018-06-12T02:34:04.985Z,45.2
2018-06-12T02:36:05.201Z,45.2
2018-06-12T02:38:10.860Z,45.2
2018-06-12T02:40:05.639Z,45.2
2018-06-12T02:42:07.981Z,45.1
2018-06-12T02:44:05.680Z,45.2
2018-06-12T02:46:07.962Z,45.3
2018-06-12T02:48:07.758Z,45.3
2018-06-12T02:50:05.501Z,45.3
2018-06-12T02:52:05.159Z,45.2
2018-06-12T02:54:05.829Z,45.3
2018-06-12T02:56:05.707Z,45.3
2018-06-12T02:58:05.582Z,45.3
2018-06-12T03:00:10.547Z,45.1
2018-06-12T03:02:07.965Z,45.3
2018-06-12T03:04:05.204Z,45.3
2018-06-12T03:06:08.468Z,45.2
2018-06-12T03:08:05.268Z,45
2018-06-12T03:10:05.953Z,45.1
2018-06-12T03:12:05.722Z,45
2018-06-12T03:14:12.281Z,45.1
2018-06-12T03:16:05.426Z,45.1
2018-06-12T03:18:05.398Z,44.9
2018-06-12T03:20:05.640Z,45
2018-06-12T03:22:05.329Z,45
2018-06-12T03:24:05.065Z,45
2018-06-12T03:26:06.046Z,44.9
2018-06-12T03:28:05.704Z,45
2018-06-12T03:30:05.426Z,45
2018-06-12T03:32:05.145Z,45
2018-06-12T03:34:05.797Z,44.9
2018-06-12T03:36:05.495Z,44.9
2018-06-12T03:38:07.707Z,44.7
2018-06-12T03:40:05.408Z,44.8
2018-06-12T03:42:05.079Z,44.9
2018-06-12T03:44:05.735Z,44.9
2018-06-12T03:46:13.154Z,44.8
2018-06-12T03:48:05.861Z,44.8
2018-06-12T03:50:05.577Z,44.7
2018-06-12T03:52:08.311Z,44.8
2018-06-12T03:54:05.040Z,44.8
2018-06-12T03:56:05.235Z,44.8
2018-06-12T03:58:05.960Z,44.8
2018-06-12T04:00:05.216Z,43.5
2018-06-12T04:02:13.466Z,42.9
2018-06-12T04:04:05.219Z,42.9
2018-06-12T04:06:11.182Z,43.6
2018-06-12T04:08:08.713Z,43.2
2018-06-12T04:10:05.380Z,43.2
2018-06-12T04:12:05.137Z,43.4
2018-06-12T04:14:05.830Z,43.2
2018-06-12T04:16:05.483Z,43
2018-06-12T04:18:05.418Z,43.6
2018-06-12T04:20:05.126Z,43.6
2018-06-12T04:22:05.851Z,44
2018-06-12T04:24:05.674Z,43.6
2018-06-12T04:26:10.467Z,44.2
2018-06-12T04:28:07.715Z,44.3
2018-06-12T04:30:05.482Z,44.2
2018-06-12T04:32:05.158Z,43.8
2018-06-12T04:34:05.829Z,44.1
2018-06-12T04:36:05.483Z,43.9
2018-06-12T04:38:05.279Z,44.2
2018-06-12T04:40:06.013Z,44.3
2018-06-12T04:42:08.578Z,43.9
2018-06-12T04:44:05.506Z,44.2
2018-06-12T04:46:05.346Z,44.7
2018-06-12T04:48:05.036Z,44.4
2018-06-12T04:50:06.007Z,44.3
2018-06-12T04:52:05.734Z,44.5
2018-06-12T04:54:05.733Z,44.5
2018-06-12T04:56:05.576Z,44.6
2018-06-12T04:58:05.829Z,44.5
2018-06-12T05:00:05.505Z,44.7
2018-06-12T05:02:05.220Z,44.4
2018-06-12T05:04:06.209Z,44.6
2018-06-12T05:06:05.913Z,44.6
2018-06-12T05:08:05.613Z,44.8
2018-06-12T05:10:05.301Z,44.7
2018-06-12T05:12:06.392Z,44.6
2018-06-12T05:14:05.376Z,44.6
2018-06-12T05:16:05.021Z,44.6
2018-06-12T05:18:05.883Z,45.1
2018-06-12T05:20:10.694Z,45.5
2018-06-12T05:22:06.103Z,45.4
2018-06-12T05:24:08.299Z,46.8
2018-06-12T05:26:06.018Z,46.6
2018-06-12T05:28:05.709Z,46.9
2018-06-12T05:30:07.913Z,47.1
2018-06-12T05:32:05.592Z,46.9
2018-06-12T05:34:06.248Z,47
2018-06-12T05:36:10.700Z,47
2018-06-12T05:38:13.502Z,46.9
2018-06-12T05:40:12.783Z,46.9
2018-06-12T05:42:05.456Z,46.9
2018-06-12T05:44:05.130Z,47
2018-06-12T05:46:05.406Z,46.8
2018-06-12T05:48:07.640Z,46.9
2018-06-12T05:50:07.876Z,46.7
2018-06-12T05:52:05.533Z,46.7
2018-06-12T05:54:07.724Z,46.9
2018-06-12T05:56:05.439Z,46.6
2018-06-12T05:58:05.105Z,46.8
2018-06-12T06:00:05.846Z,46.7
2018-06-12T06:02:05.558Z,46.8
2018-06-12T06:04:07.773Z,46.8
2018-06-12T06:06:10.557Z,46.7
2018-06-12T06:08:05.843Z,46.7
2018-06-12T06:10:05.656Z,46.5
2018-06-12T06:12:25.938Z,46.6
2018-06-12T06:14:08.872Z,46.6
2018-06-12T06:16:11.224Z,46.6
2018-06-12T06:18:06.780Z,46.5
2018-06-12T06:20:07.994Z,46.7
2018-06-12T06:22:05.716Z,46.6
2018-06-12T06:24:05.640Z,46.7
2018-06-12T06:26:05.355Z,46.7
2018-06-12T06:28:05.088Z,46.7
2018-06-12T06:30:05.740Z,46.6
2018-06-12T06:32:05.729Z,46.7
2018-06-12T06:34:05.981Z,46.6
2018-06-12T06:36:05.765Z,46.5
2018-06-12T06:38:07.980Z,46.4
2018-06-12T06:40:05.907Z,46.4
2018-06-12T06:42:05.629Z,46.3
2018-06-12T06:44:08.638Z,46.2
2018-06-12T06:46:05.461Z,46.1
2018-06-12T06:48:05.223Z,46.2
2018-06-12T06:50:08.451Z,46.2
2018-06-12T06:52:05.675Z,46.2
2018-06-12T06:54:05.392Z,46.2
2018-06-12T06:56:05.829Z,46.2
2018-06-12T06:58:05.060Z,46.4
2018-06-12T07:00:05.923Z,46.4
2018-06-12T07:02:05.640Z,46.4
2018-06-12T07:04:05.842Z,46.4
2018-06-12T07:06:05.043Z,46.4
2018-06-12T07:08:12.834Z,46.4
2018-06-12T07:10:05.483Z,46.4
2018-06-12T07:12:05.889Z,46.4
2018-06-12T07:14:05.602Z,46.4
2018-06-12T07:16:07.824Z,46.4
2018-06-12T07:18:05.940Z,46.4
2018-06-12T07:20:05.602Z,46.6
2018-06-12T07:22:05.346Z,46.6
2018-06-12T07:24:04.981Z,46.6
2018-06-12T07:26:06.132Z,46.6
2018-06-12T07:28:05.849Z,46.6
2018-06-12T07:30:08.094Z,46.6
2018-06-12T07:32:05.866Z,46.6
2018-06-12T07:34:08.070Z,46.8
2018-06-12T07:36:08.240Z,46.6
2018-06-12T07:38:08.450Z,46.6
2018-06-12T07:40:05.119Z,46.5
2018-06-12T07:42:05.877Z,46.7
2018-06-12T07:44:05.591Z,46.6
2018-06-12T07:46:05.304Z,46.5
2018-06-12T07:48:07.489Z,46.6
2018-06-12T07:50:07.724Z,46.5
2018-06-12T07:52:05.393Z,46.5
2018-06-12T07:54:05.025Z,46.5
2018-06-12T07:56:05.722Z,46.4
2018-06-12T07:58:05.948Z,46.4
2018-06-12T08:00:05.677Z,46.5
2018-06-12T08:02:10.437Z,46.5
2018-06-12T08:04:10.657Z,46.3
2018-06-12T08:06:05.412Z,46.2
2018-06-12T08:08:07.650Z,46.4
2018-06-12T08:10:08.043Z,46.2
2018-06-12T08:12:05.292Z,46.4
2018-06-12T08:14:06.352Z,46.3
2018-06-12T08:16:05.042Z,46.3
2018-06-12T08:18:05.878Z,46.3
2018-06-12T08:20:05.566Z,46.3
2018-06-12T08:22:05.219Z,46.3
2018-06-12T08:24:05.932Z,46.3
2018-06-12T08:26:05.670Z,46.3
2018-06-12T08:28:06.272Z,46.3
2018-06-12T08:30:06.610Z,46.3
2018-06-12T08:32:08.213Z,46.3
2018-06-12T08:34:05.872Z,46.3
2018-06-12T08:36:05.773Z,46.3
2018-06-12T08:38:05.457Z,46.3
2018-06-12T08:40:05.664Z,46.2
2018-06-12T08:42:08.462Z,46.2
2018-06-12T08:44:05.119Z,46.1
2018-06-12T08:46:05.772Z,46.2
2018-06-12T08:48:05.503Z,46.2
2018-06-12T08:50:05.219Z,46.2
2018-06-12T08:52:08.418Z,46.3
2018-06-12T08:54:05.098Z,46.1
2018-06-12T08:56:05.828Z,46.3
2018-06-12T08:58:05.071Z,46.3
2018-06-12T09:00:06.779Z,46.3
2018-06-12T09:02:05.535Z,46.2
2018-06-12T09:04:05.271Z,46.2
2018-06-12T09:06:05.965Z,46.2
2018-06-12T09:08:05.684Z,46.1
2018-06-12T09:10:05.369Z,46.3
2018-06-12T09:12:10.200Z,46.1
2018-06-12T09:14:13.070Z,46.1
2018-06-12T09:16:05.774Z,46.1
2018-06-12T09:18:05.660Z,46.1
2018-06-12T09:20:06.165Z,46.1
2018-06-12T09:22:05.874Z,46.1
2018-06-12T09:24:13.216Z,46.1
2018-06-12T09:26:05.542Z,46.1
2018-06-12T09:28:05.238Z,46.1
2018-06-12T09:30:10.952Z,46.1
2018-06-12T09:32:05.718Z,46
2018-06-12T09:34:10.655Z,46.1
2018-06-12T09:36:07.887Z,46.1
2018-06-12T09:38:05.184Z,46.1
2018-06-12T09:40:05.971Z,46.1
2018-06-12T09:42:05.839Z,46
2018-06-12T09:44:05.655Z,46.1
2018-06-12T09:46:05.891Z,46.1
2018-06-12T09:48:05.107Z,46
2018-06-12T09:50:08.309Z,46
2018-06-12T09:52:05.633Z,46
2018-06-12T09:54:05.333Z,46
2018-06-12T09:56:05.043Z,46
2018-06-12T09:58:08.285Z,46
2018-06-12T10:00:05.978Z,46.1
2018-06-12T10:02:05.708Z,46.1
2018-06-12T10:04:05.560Z,46.1
2018-06-12T10:06:05.226Z,46.1
2018-06-12T10:08:05.974Z,46.1
2018-06-12T10:10:05.681Z,46.1
2018-06-12T10:12:05.388Z,46.1
2018-06-12T10:14:05.628Z,46.1
2018-06-12T10:16:05.251Z,46.1
2018-06-12T10:18:05.722Z,46.1
2018-06-12T10:20:05.708Z,46.1
2018-06-12T10:22:05.386Z,46
2018-06-12T10:24:05.111Z,46.1
2018-06-12T10:26:05.808Z,46.1
2018-06-12T10:28:05.502Z,46.1
2018-06-12T10:30:05.277Z,46.2
2018-06-12T10:32:04.998Z,46
2018-06-12T10:34:05.675Z,46.1
2018-06-12T10:36:05.325Z,46.2
2018-06-12T10:38:08.882Z,46.2
2018-06-12T10:40:05.542Z,46.2
2018-06-12T10:42:13.360Z,46.1
2018-06-12T10:44:05.146Z,46.1
2018-06-12T10:46:05.834Z,46.1
2018-06-12T10:48:05.538Z,46.1
2018-06-12T10:50:05.458Z,46.1
2018-06-12T10:52:05.435Z,46.1
2018-06-12T10:54:05.121Z,46.2
2018-06-12T10:56:13.403Z,46.3
2018-06-12T10:58:05.107Z,46.1
2018-06-12T11:00:05.794Z,46.3
2018-06-12T11:02:05.484Z,46.3
2018-06-12T11:04:07.697Z,46.2
2018-06-12T11:06:05.400Z,46.2
2018-06-12T11:08:07.662Z,46.1
2018-06-12T11:10:05.343Z,46.2
2018-06-12T11:12:07.670Z,46.2
2018-06-12T11:14:08.413Z,46.3
2018-06-12T11:16:05.138Z,46.1
2018-06-12T11:18:05.020Z,46.2
2018-06-12T11:20:05.716Z,46.2
2018-06-12T11:22:05.395Z,46.2
2018-06-12T11:24:05.291Z,46.2
2018-06-12T11:26:05.504Z,46.2
2018-06-12T11:28:05.200Z,46.1
2018-06-12T11:30:05.148Z,46.2
2018-06-12T11:32:05.918Z,46.2
2018-06-12T11:34:05.179Z,46.2
2018-06-12T11:36:08.484Z,46.3
2018-06-12T11:38:10.240Z,46.2
2018-06-12T11:40:05.397Z,46.1
2018-06-12T11:42:05.638Z,46.2
2018-06-12T11:44:08.673Z,46.2
2018-06-12T11:46:07.881Z,46.2
2018-06-12T11:48:05.576Z,46.2
2018-06-12T11:50:05.277Z,46.1
2018-06-12T11:52:05.450Z,46.1
2018-06-12T11:54:05.132Z,46.1
2018-06-12T11:56:08.640Z,46.1
2018-06-12T11:58:05.403Z,46.1
2018-06-12T12:00:05.593Z,46.1
2018-06-12T12:02:05.254Z,46.1
2018-06-12T12:04:05.927Z,46.2
2018-06-12T12:06:08.287Z,46.1
2018-06-12T12:08:05.568Z,46.1
2018-06-12T12:10:05.348Z,46.1
2018-06-12T12:12:07.561Z,46.1
2018-06-12T12:14:08.309Z,46.1
2018-06-12T12:16:06.029Z,46.1
2018-06-12T12:18:05.469Z,46.1
2018-06-12T12:20:05.665Z,46.1
2018-06-12T12:22:05.426Z,46.1
2018-06-12T12:24:05.083Z,46.1
2018-06-12T12:26:05.790Z,46.1
2018-06-12T12:28:10.482Z,46.1
2018-06-12T12:30:15.263Z,45.9
2018-06-12T12:32:08.760Z,46.1
2018-06-12T12:34:05.540Z,46.1
2018-06-12T12:36:05.284Z,46.1
2018-06-12T12:38:05.580Z,46.2
2018-06-12T12:40:05.284Z,46
2018-06-12T12:42:06.003Z,46.1
2018-06-12T12:44:05.843Z,46.3
2018-06-12T12:46:05.526Z,46.2
2018-06-12T12:48:05.223Z,46.5
2018-06-12T12:50:06.323Z,46.7
2018-06-12T12:52:05.999Z,46.6
2018-06-12T12:54:05.650Z,46.6
2018-06-12T12:56:05.330Z,46.5
2018-06-12T12:58:11.032Z,46.6
2018-06-12T13:00:05.692Z,46.6
2018-06-12T13:02:05.416Z,46.9
2018-06-12T13:04:12.704Z,46.8
2018-06-12T13:06:05.388Z,46.8
2018-06-12T13:08:05.096Z,46.9
2018-06-12T13:10:05.362Z,47
2018-06-12T13:12:05.108Z,47.3
2018-06-12T13:14:05.683Z,47.3
2018-06-12T13:16:05.905Z,47.5
2018-06-12T13:18:05.881Z,47.5
2018-06-12T13:20:08.381Z,48
2018-06-12T13:22:07.730Z,48
2018-06-12T13:24:05.912Z,48
2018-06-12T13:26:13.290Z,47.8
2018-06-12T13:28:06.057Z,48
2018-06-12T13:30:05.283Z,48
2018-06-12T13:32:13.538Z,48
2018-06-12T13:34:05.346Z,48
2018-06-12T13:36:05.058Z,47
2018-06-12T13:38:05.739Z,47
2018-06-12T13:40:05.441Z,45.6
2018-06-12T13:42:08.156Z,45.5
2018-06-12T13:44:13.431Z,45.1
2018-06-12T13:46:05.114Z,45.1
2018-06-12T13:48:05.801Z,44.8
2018-06-12T13:50:08.269Z,45.3
2018-06-12T13:52:05.970Z,45.3
2018-06-12T13:54:05.651Z,45.4
2018-06-12T13:56:07.874Z,45.6
2018-06-12T13:58:05.540Z,45.4
2018-06-12T14:00:05.246Z,45.7
2018-06-12T14:02:16.377Z,45.6
2018-06-12T14:04:10.654Z,45.5
2018-06-12T14:06:05.382Z,45.5
2018-06-12T14:08:07.658Z,45.6
2018-06-12T14:10:07.847Z,45.5
2018-06-12T14:12:08.054Z,45.9
2018-06-12T14:14:08.523Z,45.9
2018-06-12T14:16:07.735Z,46.1
2018-06-12T14:18:07.653Z,45.9
2018-06-12T14:20:05.919Z,45.9
2018-06-12T14:22:05.605Z,45.8
2018-06-12T14:24:05.287Z,45.5
2018-06-12T14:26:08.546Z,45.5
2018-06-12T14:28:05.245Z,45.5
2018-06-12T14:30:05.972Z,45.6
2018-06-12T14:32:08.233Z,45.6
2018-06-12T14:34:05.896Z,45.6
2018-06-12T14:36:05.088Z,45.5
2018-06-12T14:38:05.790Z,45.6
2018-06-12T14:40:07.798Z,45.2
2018-06-12T14:42:05.981Z,45.2
2018-06-12T14:44:05.790Z,45.3
2018-06-12T14:46:05.533Z,45.5
2018-06-12T14:48:05.663Z,45.3
2018-06-12T14:50:05.466Z,45.5
2018-06-12T14:52:06.182Z,45.9
2018-06-12T14:54:05.933Z,45.7
2018-06-12T14:56:06.451Z,45.7
2018-06-12T14:58:06.231Z,45.9
2018-06-12T15:00:08.691Z,45.8
2018-06-12T15:02:08.129Z,45.8
2018-06-12T15:04:05.844Z,45.8
2018-06-12T15:06:13.367Z,46
2018-06-12T15:08:11.773Z,46
2018-06-12T15:10:05.257Z,46
2018-06-12T15:12:05.155Z,45.9
2018-06-12T15:14:05.360Z,46.1
2018-06-12T15:16:05.032Z,45.9
2018-06-12T15:18:05.915Z,46.1
2018-06-12T15:20:05.590Z,46
2018-06-12T15:22:07.836Z,46
2018-06-12T15:24:05.556Z,46
2018-06-12T15:26:05.300Z,46
2018-06-12T15:28:05.952Z,46
2018-06-12T15:30:05.404Z,46.2
2018-06-12T15:32:05.749Z,46.1
2018-06-12T15:34:05.669Z,46.2
2018-06-12T15:36:13.490Z,46.1
2018-06-12T15:38:10.177Z,46.1
2018-06-12T15:40:05.342Z,46.1
2018-06-12T15:42:05.018Z,46.1
2018-06-12T15:44:05.677Z,46.1
2018-06-12T15:46:05.191Z,46.1
2018-06-12T15:48:08.448Z,46.1
2018-06-12T15:50:05.154Z,46.1
2018-06-12T15:52:10.902Z,46.2
2018-06-12T15:54:05.314Z,46.2
2018-06-12T15:56:05.448Z,46.2
2018-06-12T15:58:05.280Z,46.2
2018-06-12T16:00:05.397Z,46.1
2018-06-12T16:02:05.411Z,46.1
2018-06-12T16:04:07.869Z,46.1
2018-06-12T16:06:05.539Z,46.1
2018-06-12T16:08:17.866Z,46.1
2018-06-12T16:10:05.794Z,46
2018-06-12T16:12:05.509Z,46.1
2018-06-12T16:14:05.947Z,46.1
2018-06-12T16:16:05.502Z,46.1
2018-06-12T16:18:10.501Z,46.2
2018-06-12T16:20:05.153Z,46.2
2018-06-12T16:22:05.884Z,46.3
2018-06-12T16:24:07.686Z,46.3
2018-06-12T16:26:05.980Z,46.3
2018-06-12T16:28:06.115Z,46.4
2018-06-12T16:30:06.910Z,46.5
2018-06-12T16:32:08.123Z,46.4
2018-06-12T16:34:05.844Z,46.4
2018-06-12T16:36:05.610Z,46.3
2018-06-12T16:38:06.447Z,46.4
2018-06-12T16:40:05.674Z,46.3
2018-06-12T16:42:05.580Z,46.3
2018-06-12T16:44:05.849Z,46.3
2018-06-12T16:46:05.162Z,46.4
2018-06-12T16:48:05.563Z,46.5
2018-06-12T16:50:05.795Z,46.3
2018-06-12T16:52:05.519Z,46.3
2018-06-12T16:54:05.222Z,46.5
2018-06-12T16:56:05.158Z,46.4
2018-06-12T16:58:08.435Z,46.4
2018-06-12T17:00:05.171Z,46.4
2018-06-12T17:02:06.089Z,43.9
2018-06-12T17:04:05.947Z,45.1
2018-06-12T17:06:05.698Z,45
2018-06-12T17:08:05.976Z,44.9
2018-06-12T17:10:05.141Z,44.7
2018-06-12T17:12:05.624Z,44.5
2018-06-12T17:14:07.877Z,44
2018-06-12T17:16:08.081Z,44
2018-06-12T17:18:08.087Z,43.7
2018-06-12T17:20:08.575Z,43.9
2018-06-12T17:22:05.474Z,43.9
2018-06-12T17:24:05.250Z,42.3
2018-06-12T17:26:05.927Z,43.2
2018-06-12T17:28:05.814Z,43
2018-06-12T17:30:08.079Z,42.2
2018-06-12T17:32:05.738Z,42.2
2018-06-12T17:34:08.149Z,43
2018-06-12T17:36:06.281Z,43
2018-06-12T17:38:05.948Z,43
2018-06-12T17:40:05.861Z,43.4
2018-06-12T17:42:15.768Z,44.2
2018-06-12T17:44:05.637Z,44.1
2018-06-12T17:46:10.471Z,44
2018-06-12T17:48:05.131Z,44.2
2018-06-12T17:50:08.207Z,44.4
2018-06-12T17:52:05.875Z,44.4
2018-06-12T17:54:05.792Z,44.4
2018-06-12T17:56:06.632Z,44.4
2018-06-12T17:58:05.505Z,44.1
2018-06-12T18:00:05.401Z,44.4
2018-06-12T18:02:06.240Z,44.3
2018-06-12T18:04:05.920Z,44.3
2018-06-12T18:06:05.828Z,42.9
2018-06-12T18:08:05.782Z,44.3
2018-06-12T18:10:05.541Z,44.8
2018-06-12T18:12:08.082Z,45.2
2018-06-12T18:14:06.059Z,45.2
2018-06-12T18:16:05.809Z,45.4
2018-06-12T18:18:05.223Z,45.7
2018-06-12T18:20:08.039Z,45.9
2018-06-12T18:22:05.757Z,45.9
2018-06-12T18:24:05.436Z,46.1
2018-06-12T18:26:05.089Z,46.1
2018-06-12T18:28:08.285Z,46.2
2018-06-12T18:30:08.074Z,46.3
2018-06-12T18:32:05.740Z,46.3
2018-06-12T18:34:05.953Z,46.4
2018-06-12T18:36:05.661Z,46.4
2018-06-12T18:38:06.609Z,46.1
2018-06-12T18:40:08.057Z,46.1
2018-06-12T18:42:05.841Z,46.1
2018-06-12T18:44:08.061Z,46.4
2018-06-12T18:46:08.015Z,46.2
2018-06-12T18:48:05.782Z,46.1
2018-06-12T18:50:05.451Z,46.1
2018-06-12T18:52:08.744Z,46
2018-06-12T18:54:08.155Z,45.9
2018-06-12T18:56:06.300Z,45.9
2018-06-12T18:58:08.231Z,46.2
2018-06-12T19:00:05.173Z,46.2
2018-06-12T19:02:10.346Z,46
2018-06-12T19:04:05.497Z,46
2018-06-12T19:06:05.419Z,46
2018-06-12T19:08:05.107Z,46
2018-06-12T19:10:05.802Z,46.1
2018-06-12T19:12:05.496Z,46.2
2018-06-12T19:14:05.215Z,46.2
2018-06-12T19:16:05.096Z,46.2
2018-06-12T19:18:06.026Z,46.2
2018-06-12T19:20:06.007Z,46.2
2018-06-12T19:22:05.936Z,46.2
2018-06-12T19:24:08.167Z,46.1
2018-06-12T19:26:05.890Z,46.1
2018-06-12T19:28:06.603Z,46.2
2018-06-12T19:30:05.290Z,46.3
2018-06-12T19:32:08.770Z,46.3
2018-06-12T19:34:05.433Z,46.3
2018-06-12T19:36:05.194Z,46.3
2018-06-12T19:38:05.222Z,46.3
2018-06-12T19:40:06.875Z,46.2
2018-06-12T19:42:08.094Z,46.1
2018-06-12T19:44:05.777Z,46.1
2018-06-12T19:46:05.532Z,46.1
2018-06-12T19:48:05.211Z,46.2
2018-06-12T19:50:08.499Z,46.2
2018-06-12T19:52:10.274Z,46.2
2018-06-12T19:54:04.992Z,46.2
2018-06-12T19:56:05.716Z,46.2
2018-06-12T19:58:05.695Z,46.3
2018-06-12T20:00:05.576Z,46.2
2018-06-12T20:02:05.687Z,46.2
2018-06-12T20:04:05.347Z,46.2
2018-06-12T20:06:05.908Z,46.2
2018-06-12T20:08:05.687Z,46.2
2018-06-12T20:10:06.009Z,46.2
2018-06-12T20:12:08.875Z,46.2
2018-06-12T20:14:06.041Z,46.2
2018-06-12T20:16:08.242Z,46.2
2018-06-12T20:18:05.182Z,46.1
2018-06-12T20:20:05.415Z,46.3
2018-06-12T20:22:05.092Z,46.3
2018-06-12T20:24:08.452Z,46.3
2018-06-12T20:26:05.346Z,46.3
2018-06-12T20:28:05.238Z,46.3
2018-06-12T20:30:08.443Z,46.1
2018-06-12T20:32:05.345Z,46.1
2018-06-12T20:34:06.273Z,46.1
2018-06-12T20:36:08.952Z,46.1
2018-06-12T20:38:05.651Z,46.1
2018-06-12T20:40:08.806Z,46.2
2018-06-12T20:42:06.368Z,46.2
2018-06-12T20:44:06.309Z,46.1
2018-06-12T20:46:05.958Z,46.1
2018-06-12T20:48:08.202Z,46.1
2018-06-12T20:50:05.537Z,46.1
2018-06-12T20:52:08.674Z,46.1
2018-06-12T20:54:05.416Z,46.1
2018-06-12T20:56:05.185Z,46
2018-06-12T20:58:05.057Z,46
2018-06-12T21:00:13.464Z,45.9
2018-06-12T21:02:05.377Z,45.9
2018-06-12T21:04:05.233Z,45.9
2018-06-12T21:06:05.971Z,45.9
2018-06-12T21:08:05.845Z,46
2018-06-12T21:10:05.605Z,45.9
2018-06-12T21:12:05.464Z,45.9
2018-06-12T21:14:12.682Z,45.9
2018-06-12T21:16:05.373Z,45.9
2018-06-12T21:18:05.388Z,45.9
2018-06-12T21:20:08.859Z,45.8
2018-06-12T21:22:05.500Z,45.8
2018-06-12T21:24:05.174Z,45.8
2018-06-12T21:26:06.935Z,45.8
2018-06-12T21:28:05.594Z,45.8
2018-06-12T21:30:05.708Z,45.8
2018-06-12T21:32:10.502Z,45.8
2018-06-12T21:34:06.142Z,45.8
2018-06-12T21:36:06.018Z,45.8
2018-06-12T21:38:05.912Z,45.8
2018-06-12T21:40:05.579Z,45.8
2018-06-12T21:42:10.328Z,45.8
2018-06-12T21:44:05.337Z,45.8
2018-06-12T21:46:05.083Z,45.8
2018-06-12T21:48:06.913Z,45.8
2018-06-12T21:50:05.651Z,45.8
2018-06-12T21:52:05.435Z,45.8
2018-06-12T21:54:05.162Z,45.8
2018-06-12T21:56:06.924Z,45.8
2018-06-12T21:58:05.661Z,45.8
2018-06-12T22:00:05.318Z,45.7
2018-06-12T22:02:05.763Z,45.8
2018-06-12T22:04:06.545Z,45.8
2018-06-12T22:06:10.550Z,45.7
2018-06-12T22:08:05.227Z,45.7
2018-06-12T22:10:08.470Z,45.7
2018-06-12T22:12:05.384Z,45.7
2018-06-12T22:14:05.124Z,45.7
2018-06-12T22:16:05.839Z,45.7
2018-06-12T22:18:05.755Z,45.7
2018-06-12T22:20:05.495Z,45.5
2018-06-12T22:22:05.374Z,45.7
2018-06-12T22:24:06.086Z,45.7
2018-06-12T22:26:05.960Z,45.6
2018-06-12T22:28:05.155Z,45.6
2018-06-12T22:30:05.648Z,45.6
2018-06-12T22:32:05.475Z,45.6
2018-06-12T22:34:05.430Z,45.7
2018-06-12T22:36:05.112Z,45.6
2018-06-12T22:38:05.532Z,45.6
2018-06-12T22:40:08.019Z,45.6
2018-06-12T22:42:08.255Z,45.6
2018-06-12T22:44:05.080Z,45.6
2018-06-12T22:46:05.774Z,45.5
2018-06-12T22:48:06.372Z,45.5
2018-06-12T22:50:05.597Z,45.5
2018-06-12T22:52:06.153Z,45.5
2018-06-12T22:54:06.075Z,45.5
2018-06-12T22:56:12.724Z,45.5
2018-06-12T22:58:05.391Z,45.5
2018-06-12T23:00:08.646Z,45.5
2018-06-12T23:02:05.891Z,45.6
2018-06-12T23:04:09.324Z,45.4
2018-06-12T23:06:05.967Z,45.6
2018-06-12T23:08:08.482Z,44.9
2018-06-12T23:10:05.171Z,44.7
2018-06-12T23:12:05.491Z,44.5
2018-06-12T23:14:05.203Z,44.3
2018-06-12T23:16:09.378Z,43.7
2018-06-12T23:18:08.262Z,43.6
2018-06-12T23:20:05.943Z,43.6
2018-06-12T23:22:06.313Z,43.5
2018-06-12T23:24:05.988Z,43.3
2018-06-12T23:26:10.352Z,43.1
2018-06-12T23:28:07.629Z,43
2018-06-12T23:30:05.153Z,43.1
2018-06-12T23:32:05.921Z,43.2
2018-06-12T23:34:08.600Z,42.8
2018-06-12T23:36:05.311Z,42.7
2018-06-12T23:38:06.035Z,43
2018-06-12T23:40:05.705Z,42.7
2018-06-12T23:42:05.378Z,42.6
2018-06-12T23:44:05.156Z,42.5
2018-06-12T23:46:05.839Z,42.6
2018-06-12T23:48:05.554Z,42.6
2018-06-12T23:50:05.270Z,42.4
2018-06-12T23:52:05.103Z,42.4
2018-06-12T23:54:05.322Z,42.1
2018-06-12T23:56:07.657Z,42.1
2018-06-12T23:58:05.371Z,42.1
